createdAt,value
2017-05-19T00:01:29.462Z,7.18
2017-05-19T00:03:56.696Z,6.80
2017-05-19T00:06:23.874Z,7.20
2017-05-19T00:08:51.096Z,7.58
2017-05-19T00:11:18.319Z,6.90
2017-05-19T00:13:45.557Z,8.04
2017-05-19T00:16:12.894Z,8.42
2017-05-19T00:18:40.138Z,8.50
2017-05-19T00:21:07.351Z,8.98
2017-05-19T00:23:34.568Z,8.56
2017-05-19T00:26:01.748Z,8.80
2017-05-19T00:28:29.048Z,9.62
2017-05-19T00:30:56.342Z,8.42
2017-05-19T00:33:23.545Z,9.66
2017-05-19T00:35:50.806Z,9.18
2017-05-19T00:38:18.080Z,9.42
2017-05-19T00:40:45.273Z,10.64
2017-05-19T00:43:12.468Z,9.34
2017-05-19T00:45:39.816Z,9.72
2017-05-19T00:48:07.056Z,10.96
2017-05-19T00:50:34.269Z,12.16
2017-05-19T00:53:01.555Z,10.54
2017-05-19T00:55:28.815Z,11.08
2017-05-19T00:57:56.053Z,10.66
2017-05-19T01:00:23.277Z,10.48
2017-05-19T01:02:50.471Z,9.84
2017-05-19T01:05:17.662Z,11.88
2017-05-19T01:07:45.122Z,13.32
2017-05-19T01:10:12.410Z,13.50
2017-05-19T01:12:39.731Z,14.40
2017-05-19T01:15:07.039Z,13.38
2017-05-19T01:17:34.347Z,14.10
2017-05-19T01:20:01.547Z,14.38
2017-05-19T01:22:28.770Z,15.54
2017-05-19T01:24:56.034Z,14.50
2017-05-19T01:27:23.234Z,16.34
2017-05-19T01:29:50.454Z,15.88
2017-05-19T01:32:17.666Z,15.62
2017-05-19T01:34:44.858Z,16.00
2017-05-19T01:37:12.082Z,15.60
2017-05-19T01:39:39.326Z,16.50
2017-05-19T01:42:06.520Z,17.78
2017-05-19T01:44:33.751Z,15.52
2017-05-19T01:47:00.976Z,16.96
2017-05-19T01:49:28.247Z,17.08
2017-05-19T01:51:55.479Z,18.88
2017-05-19T01:54:23.374Z,19.24
2017-05-19T01:56:50.580Z,18.28
2017-05-19T01:59:17.790Z,15.84
2017-05-19T02:01:45.045Z,16.88
2017-05-19T02:04:12.382Z,18.94
2017-05-19T02:06:40.429Z,19.94
2017-05-19T02:09:07.637Z,18.36
2017-05-19T02:11:34.924Z,18.16
2017-05-19T02:14:02.164Z,18.98
2017-05-19T02:16:35.684Z,17.92
2017-05-19T02:19:02.995Z,19.10
2017-05-19T02:21:30.253Z,19.84
2017-05-19T02:23:57.528Z,20.58
2017-05-19T02:26:24.783Z,18.44
2017-05-19T02:28:52.084Z,18.06
2017-05-19T02:31:19.292Z,17.90
2017-05-19T02:33:46.607Z,18.04
2017-05-19T02:36:13.824Z,17.62
2017-05-19T02:38:41.295Z,19.12
2017-05-19T02:41:08.548Z,18.24
2017-05-19T02:43:35.853Z,19.24
2017-05-19T02:46:03.067Z,18.44
2017-05-19T02:48:30.320Z,19.72
2017-05-19T02:50:57.677Z,16.76
2017-05-19T02:53:24.879Z,16.80
2017-05-19T02:55:52.136Z,16.74
2017-05-19T02:58:19.401Z,16.28
2017-05-19T03:00:46.670Z,16.42
2017-05-19T03:03:13.916Z,16.68
2017-05-19T03:05:41.214Z,16.62
2017-05-19T03:08:08.429Z,16.62
2017-05-19T03:10:35.684Z,15.96
2017-05-19T03:13:02.940Z,16.08
2017-05-19T03:15:30.267Z,16.28
2017-05-19T03:17:58.491Z,16.16
2017-05-19T03:20:25.718Z,16.70
2017-05-19T03:22:52.971Z,16.50
2017-05-19T03:25:20.203Z,15.26
2017-05-19T03:27:47.474Z,15.80
2017-05-19T03:30:14.690Z,15.60
2017-05-19T03:32:41.939Z,16.98
2017-05-19T03:35:09.138Z,14.42
2017-05-19T03:37:36.550Z,15.62
2017-05-19T03:40:03.762Z,14.82
2017-05-19T03:42:30.974Z,14.16
2017-05-19T03:44:58.166Z,14.82
2017-05-19T03:47:25.412Z,14.42
2017-05-19T03:49:52.623Z,14.42
2017-05-19T03:52:19.886Z,15.44
2017-05-19T03:54:47.127Z,13.86
2017-05-19T03:57:14.319Z,13.88
2017-05-19T03:59:41.553Z,13.56
2017-05-19T04:02:08.792Z,12.68
2017-05-19T04:04:36.076Z,13.94
2017-05-19T04:07:03.286Z,13.02
2017-05-19T04:09:30.538Z,14.26
2017-05-19T04:12:03.826Z,14.04
2017-05-19T04:14:36.645Z,13.82
2017-05-19T04:17:03.903Z,14.26
2017-05-19T04:19:31.141Z,13.20
2017-05-19T04:21:58.445Z,15.18
2017-05-19T04:24:25.865Z,14.02
2017-05-19T04:26:58.386Z,16.14
2017-05-19T04:29:25.659Z,15.02
2017-05-19T04:31:53.276Z,16.10
2017-05-19T04:34:20.470Z,15.50
2017-05-19T04:36:47.698Z,14.38
2017-05-19T04:39:21.837Z,16.90
2017-05-19T04:44:44.778Z,14.96
2017-05-19T04:47:12.151Z,13.58
2017-05-19T04:49:45.452Z,14.38
2017-05-19T04:52:13.643Z,15.68
2017-05-19T04:54:40.865Z,14.44
2017-05-19T04:57:18.093Z,16.60
2017-05-19T04:59:45.953Z,15.24
2017-05-19T05:02:13.359Z,16.38
2017-05-19T05:04:43.588Z,15.66
2017-05-19T05:07:18.426Z,15.74
2017-05-19T05:09:46.018Z,15.84
2017-05-19T05:12:13.239Z,17.10
2017-05-19T05:14:40.534Z,15.18
2017-05-19T05:17:07.826Z,17.58
2017-05-19T05:19:35.640Z,17.22
2017-05-19T05:22:02.888Z,16.02
2017-05-19T05:24:33.878Z,16.86
2017-05-19T05:27:01.059Z,17.34
2017-05-19T05:29:28.326Z,16.44
2017-05-19T05:31:58.110Z,16.98
2017-05-19T05:34:25.342Z,16.98
2017-05-19T05:36:52.586Z,16.86
2017-05-19T05:39:19.833Z,16.38
2017-05-19T05:41:47.377Z,16.94
2017-05-19T05:44:19.413Z,17.04
2017-05-19T05:47:03.155Z,17.44
2017-05-19T05:49:32.338Z,16.28
2017-05-19T05:52:17.025Z,16.96
2017-05-19T05:54:44.261Z,14.96
2017-05-19T05:57:17.633Z,14.50
2017-05-19T05:59:44.912Z,15.98
2017-05-19T06:02:20.335Z,17.08
2017-05-19T06:04:47.647Z,16.68
2017-05-19T06:07:14.913Z,17.12
2017-05-19T06:09:42.127Z,16.58
2017-05-19T06:12:09.431Z,16.14
2017-05-19T06:14:36.800Z,16.86
2017-05-19T06:17:04.161Z,16.80
2017-05-19T06:19:31.506Z,15.76
2017-05-19T06:22:01.850Z,16.08
2017-05-19T06:24:29.820Z,17.66
2017-05-19T06:26:57.117Z,16.80
2017-05-19T06:29:24.964Z,18.10
2017-05-19T06:31:52.544Z,16.44
2017-05-19T06:34:19.830Z,15.48
2017-05-19T06:52:47.086Z,17.78
2017-05-19T06:55:14.394Z,19.34
2017-05-19T06:57:41.721Z,18.02
2017-05-19T07:00:09.015Z,19.46
2017-05-19T07:02:36.311Z,19.88
2017-05-19T07:05:03.608Z,18.88
2017-05-19T07:07:31.150Z,21.16
2017-05-19T07:09:58.366Z,20.22
2017-05-19T07:12:25.614Z,20.28
2017-05-19T07:14:52.861Z,20.70
2017-05-19T07:17:20.257Z,17.88
2017-05-19T07:19:48.627Z,19.62
2017-05-19T07:22:15.922Z,21.54
2017-05-19T07:24:43.170Z,22.18
2017-05-19T07:27:10.376Z,20.84
2017-05-19T07:32:10.965Z,23.96
2017-05-19T07:34:50.411Z,24.36
2017-05-19T07:37:17.837Z,23.22
2017-05-19T07:39:45.080Z,24.56
2017-05-19T07:42:17.358Z,23.80
2017-05-19T07:44:44.564Z,22.34
2017-05-19T07:47:11.759Z,23.60
2017-05-19T07:49:39.955Z,24.36
2017-05-19T07:52:10.791Z,24.14
2017-05-19T07:54:41.341Z,24.62
2017-05-19T07:57:08.558Z,27.86
2017-05-19T07:59:35.964Z,25.38
2017-05-19T08:02:03.224Z,25.18
2017-05-19T08:04:36.215Z,23.76
2017-05-19T08:07:04.581Z,23.14
2017-05-19T08:09:31.798Z,21.76
2017-05-19T08:11:59.040Z,24.56
2017-05-19T08:14:43.205Z,26.40
2017-05-19T08:17:10.680Z,23.96
2017-05-19T08:19:39.060Z,21.30
2017-05-19T08:22:08.733Z,20.52
2017-05-19T08:24:35.943Z,21.14
2017-05-19T08:27:03.246Z,19.46
2017-05-19T08:29:30.560Z,20.82
2017-05-19T08:31:58.197Z,19.46
2017-05-19T08:34:25.577Z,19.56
2017-05-19T08:36:52.868Z,20.92
2017-05-19T08:39:20.994Z,22.06
2017-05-19T08:41:48.300Z,21.32
2017-05-19T08:44:16.531Z,20.42
2017-05-19T08:46:45.280Z,20.52
2017-05-19T08:49:12.519Z,19.36
2017-05-19T08:51:41.133Z,18.40
2017-05-19T08:54:08.466Z,18.18
2017-05-19T08:56:35.714Z,19.02
2017-05-19T08:59:03.042Z,17.02
2017-05-19T09:01:30.312Z,18.94
2017-05-19T09:04:02.763Z,17.50
2017-05-19T09:06:32.059Z,18.02
2017-05-19T09:08:59.284Z,18.44
2017-05-19T09:11:26.534Z,18.70
2017-05-19T09:13:55.746Z,19.12
2017-05-19T09:16:23.019Z,18.06
2017-05-19T09:18:50.251Z,18.98
2017-05-19T09:21:17.445Z,17.94
2017-05-19T09:23:44.701Z,17.98
2017-05-19T09:26:11.923Z,15.56
2017-05-19T09:28:46.492Z,14.98
2017-05-19T09:31:14.714Z,15.08
2017-05-19T09:33:43.844Z,15.54
2017-05-19T09:36:11.099Z,17.24
2017-05-19T09:38:38.359Z,15.68
2017-05-19T09:41:05.594Z,17.52
2017-05-19T09:43:32.808Z,17.68
2017-05-19T09:46:00.050Z,18.50
2017-05-19T09:48:27.287Z,17.64
2017-05-19T09:50:54.480Z,16.68
2017-05-19T09:53:26.479Z,18.84
2017-05-19T09:55:53.658Z,19.72
2017-05-19T09:58:21.140Z,17.80
2017-05-19T10:00:48.438Z,17.78
2017-05-19T10:03:15.669Z,18.04
2017-05-19T10:05:42.935Z,18.22
2017-05-19T10:08:10.208Z,17.70
2017-05-19T10:10:37.446Z,18.00
2017-05-19T10:13:05.851Z,17.76
2017-05-19T10:15:33.714Z,18.84
2017-05-19T10:18:00.947Z,16.76
2017-05-19T10:20:28.165Z,19.18
2017-05-19T10:23:04.399Z,18.42
2017-05-19T10:25:35.121Z,18.30
2017-05-19T10:28:03.293Z,17.68
2017-05-19T10:30:31.088Z,17.60
2017-05-19T10:33:10.646Z,17.60
2017-05-19T10:35:41.445Z,18.78
2017-05-19T10:38:08.777Z,16.80
2017-05-19T10:40:36.022Z,17.82
2017-05-19T10:43:05.490Z,17.12
2017-05-19T10:45:33.042Z,18.34
2017-05-19T10:48:01.295Z,18.18
2017-05-19T10:50:33.824Z,16.80
2017-05-19T10:53:01.112Z,18.10
2017-05-19T10:55:30.274Z,18.14
2017-05-19T10:57:59.525Z,20.54
2017-05-19T11:00:26.743Z,18.52
2017-05-19T11:03:00.971Z,19.40
2017-05-19T11:05:28.287Z,21.80
2017-05-19T11:07:56.540Z,21.26
2017-05-19T11:10:23.962Z,19.28
2017-05-19T11:12:59.373Z,19.60
2017-05-19T11:15:27.673Z,19.06
2017-05-19T11:17:54.939Z,20.36
2017-05-19T11:20:22.432Z,20.48
2017-05-19T11:22:52.503Z,19.88
2017-05-19T11:25:19.897Z,18.96
2017-05-19T11:27:50.794Z,20.50
2017-05-19T11:30:18.022Z,17.10
2017-05-19T11:32:45.267Z,19.18
2017-05-19T11:35:13.187Z,20.58
2017-05-19T11:37:40.426Z,22.18
2017-05-19T11:40:07.678Z,23.08
2017-05-19T11:42:34.919Z,22.82
2017-05-19T11:45:02.185Z,20.54
2017-05-19T11:47:29.419Z,21.52
2017-05-19T11:49:56.667Z,18.74
2017-05-19T11:52:26.036Z,22.50
2017-05-19T11:54:54.807Z,17.08
2017-05-19T11:57:22.249Z,18.04
2017-05-19T11:59:49.563Z,18.28
2017-05-19T12:02:18.666Z,18.86
2017-05-19T12:04:45.930Z,17.98
2017-05-19T12:07:13.191Z,18.50
2017-05-19T12:09:48.792Z,20.58
2017-05-19T12:12:16.030Z,19.34
2017-05-19T12:14:48.029Z,18.18
2017-05-19T12:17:19.272Z,18.86
2017-05-19T12:19:46.491Z,19.28
2017-05-19T12:22:13.742Z,18.98
2017-05-19T12:24:41.248Z,19.80
2017-05-19T12:27:08.486Z,19.14
2017-05-19T12:29:35.933Z,21.08
2017-05-19T12:32:03.216Z,17.42
2017-05-19T12:34:32.512Z,16.30
2017-05-19T12:37:00.658Z,18.80
2017-05-19T12:39:29.025Z,17.72
2017-05-19T12:41:56.346Z,17.06
2017-05-19T12:44:23.576Z,19.12
2017-05-19T12:46:50.974Z,20.10
2017-05-19T12:49:18.210Z,18.88
2017-05-19T12:51:45.550Z,18.78
2017-05-19T12:54:12.866Z,18.36
2017-05-19T12:56:40.794Z,18.32
2017-05-19T12:59:08.037Z,16.56
2017-05-19T13:01:47.898Z,16.66
2017-05-19T13:04:15.275Z,17.74
2017-05-19T13:06:43.176Z,18.04
2017-05-19T13:09:10.456Z,18.48
2017-05-19T13:11:41.003Z,18.80
2017-05-19T13:14:08.250Z,18.82
2017-05-19T13:16:35.443Z,17.78
2017-05-19T13:19:03.562Z,20.90
2017-05-19T13:21:31.705Z,21.40
2017-05-19T13:23:58.889Z,21.50
2017-05-19T13:26:33.214Z,20.52
2017-05-19T13:29:03.061Z,20.66
2017-05-19T13:31:30.273Z,20.18
2017-05-19T13:33:57.529Z,19.94
2017-05-19T13:36:24.745Z,19.60
2017-05-19T13:38:52.004Z,21.14
2017-05-19T13:41:19.466Z,20.50
2017-05-19T13:43:46.712Z,21.00
2017-05-19T13:46:18.632Z,22.36
2017-05-19T13:48:46.583Z,23.82
2017-05-19T13:51:15.750Z,21.68
2017-05-19T13:53:44.165Z,20.78
2017-05-19T13:56:11.909Z,27.42
2017-05-19T14:09:58.691Z,25.34
2017-05-19T14:12:26.222Z,24.38
2017-05-19T14:14:53.748Z,24.06
2017-05-19T14:17:21.924Z,21.48
2017-05-19T14:19:53.969Z,24.38
2017-05-19T14:22:21.439Z,25.32
2017-05-19T14:30:23.428Z,23.94
2017-05-19T14:32:51.396Z,32.22
2017-05-19T14:35:18.691Z,20.46
2017-05-19T14:37:45.927Z,21.94
2017-05-19T14:40:19.229Z,22.06
2017-05-19T14:42:46.950Z,20.98
2017-05-19T14:45:14.319Z,21.58
2017-05-19T14:47:41.569Z,22.86
2017-05-19T14:50:08.794Z,21.08
2017-05-19T14:52:36.024Z,22.80
2017-05-19T14:55:03.275Z,23.70
2017-05-19T14:57:30.539Z,23.56
2017-05-19T14:59:57.748Z,23.86
2017-05-19T15:02:25.004Z,25.74
2017-05-19T15:04:54.771Z,25.34
2017-05-19T15:07:22.423Z,23.32
2017-05-19T15:09:49.771Z,26.46
2017-05-19T15:12:17.114Z,23.80
2017-05-19T15:14:47.721Z,25.80
2017-05-19T15:17:15.035Z,25.30
2017-05-19T15:19:43.859Z,23.26
2017-05-19T15:22:17.131Z,25.48
2017-05-19T15:24:46.336Z,25.92
2017-05-19T15:27:13.530Z,24.68
2017-05-19T15:29:40.771Z,26.24
2017-05-19T15:32:18.645Z,27.40
2017-05-19T15:34:45.888Z,27.42
2017-05-19T15:37:13.153Z,27.74
2017-05-19T15:39:41.382Z,26.32
2017-05-19T15:42:12.853Z,25.72
2017-05-19T15:44:40.188Z,26.62
2017-05-19T15:47:07.587Z,26.36
2017-05-19T15:49:38.359Z,24.28
2017-05-19T15:52:05.746Z,23.64
2017-05-19T15:54:33.162Z,24.70
2017-05-19T15:57:00.468Z,23.86
2017-05-19T15:59:27.680Z,24.14
2017-05-19T16:01:54.892Z,22.68
2017-05-19T16:04:22.231Z,22.80
2017-05-19T16:06:49.448Z,22.80
2017-05-19T16:09:16.779Z,22.18
2017-05-19T16:11:44.063Z,25.18
2017-05-19T16:14:11.296Z,24.22
2017-05-19T16:16:38.677Z,23.12
2017-05-19T16:19:07.939Z,25.76
2017-05-19T16:21:35.174Z,23.36
2017-05-19T16:24:02.458Z,23.80
2017-05-19T16:26:29.714Z,23.10
2017-05-19T16:28:56.977Z,23.24
2017-05-19T16:31:24.190Z,25.12
2017-05-19T16:33:51.462Z,22.14
2017-05-19T16:36:22.627Z,23.70
2017-05-19T16:38:53.050Z,22.46
2017-05-19T16:41:20.301Z,21.30
2017-05-19T16:43:47.517Z,23.34
2017-05-19T16:46:14.761Z,24.56
2017-05-19T16:48:41.998Z,26.88
2017-05-19T16:51:20.061Z,31.20
2017-05-19T16:53:47.317Z,32.58
2017-05-19T16:56:14.614Z,31.38
2017-05-19T17:01:35.432Z,34.10
2017-05-19T17:04:10.616Z,34.68
2017-05-19T17:06:39.015Z,32.06
2017-05-19T17:09:06.253Z,27.98
2017-05-19T17:11:33.552Z,32.26
2017-05-19T17:14:02.668Z,28.78
2017-05-19T17:16:29.926Z,22.92
2017-05-19T17:18:57.175Z,21.88
2017-05-19T17:21:24.387Z,26.14
2017-05-19T17:23:51.582Z,22.52
2017-05-19T17:26:18.831Z,20.78
2017-05-19T17:28:46.796Z,23.22
2017-05-19T17:31:14.347Z,25.08
2017-05-19T17:33:48.078Z,24.06
2017-05-19T17:36:16.102Z,21.84
2017-05-19T17:38:43.829Z,21.76
2017-05-19T17:41:17.454Z,20.34
2017-05-19T17:43:44.681Z,18.94
2017-05-19T17:46:11.966Z,22.50
2017-05-19T17:48:39.493Z,20.56
2017-05-19T17:51:06.798Z,21.08
2017-05-19T17:53:37.898Z,20.48
2017-05-19T17:56:08.676Z,21.40
2017-05-19T17:58:35.947Z,20.82
2017-05-19T18:01:06.654Z,20.76
2017-05-19T18:03:33.972Z,19.54
2017-05-19T18:06:01.202Z,20.62
2017-05-19T18:08:28.543Z,19.86
2017-05-19T18:10:55.899Z,18.48
2017-05-19T18:13:23.221Z,17.98
2017-05-19T18:15:50.524Z,18.60
2017-05-19T18:18:17.784Z,15.16
2017-05-19T18:20:45.009Z,16.20
2017-05-19T18:23:13.122Z,14.56
2017-05-19T18:25:40.521Z,15.36
2017-05-19T18:28:09.297Z,15.64
2017-05-19T18:30:36.727Z,15.04
2017-05-19T18:33:12.839Z,14.54
2017-05-19T18:35:40.183Z,15.78
2017-05-19T18:38:09.956Z,16.16
2017-05-19T18:43:31.789Z,17.48
2017-05-19T18:45:59.039Z,21.58
2017-05-19T18:48:33.121Z,20.16
2017-05-19T18:51:01.155Z,21.34
2017-05-19T18:53:28.372Z,0.50
2017-05-19T18:55:59.024Z,0.60
2017-05-19T18:58:26.378Z,0.60
2017-05-19T19:00:53.589Z,1.44
2017-05-19T19:03:20.815Z,0.40
2017-05-19T19:20:08.230Z,0.30
2017-05-19T19:22:38.341Z,0.30
2017-05-19T19:25:06.503Z,0.30
2017-05-19T19:27:47.807Z,0.30
2017-05-19T19:30:16.721Z,0.30
2017-05-19T19:32:44.777Z,0.30
2017-05-19T19:38:07.220Z,0.30
2017-05-19T19:40:34.407Z,0.30
2017-05-19T19:43:07.888Z,0.30
2017-05-19T19:45:37.107Z,0.30
2017-05-19T19:48:12.690Z,0.30
2017-05-19T19:50:41.904Z,0.30
2017-05-19T19:53:22.942Z,0.34
2017-05-19T19:55:52.207Z,0.40
2017-05-19T19:58:19.390Z,0.20
2017-05-19T20:00:54.320Z,0.30
2017-05-19T20:03:22.395Z,0.30
2017-05-19T20:05:50.753Z,0.30
2017-05-19T20:08:22.619Z,0.30
2017-05-19T20:13:54.207Z,0.30
2017-05-19T20:16:22.055Z,0.30
2017-05-19T20:18:49.266Z,0.30
2017-05-19T20:24:10.325Z,0.30
2017-05-19T20:26:37.515Z,0.30
2017-05-19T20:29:17.164Z,0.30
2017-05-19T20:31:51.155Z,0.20
2017-05-19T20:34:21.194Z,0.30
2017-05-19T20:36:49.032Z,0.30
2017-05-19T20:39:18.263Z,0.30
2017-05-19T20:41:46.197Z,0.48
2017-05-19T20:44:13.374Z,0.30
2017-05-19T20:49:24.579Z,0.30
2017-05-19T20:51:59.991Z,0.30
2017-05-19T20:54:29.655Z,0.30
2017-05-19T20:56:56.923Z,0.30
2017-05-19T20:59:24.608Z,0.30
2017-05-19T21:01:52.369Z,0.30
2017-05-19T21:04:20.491Z,0.30
2017-05-19T21:06:53.216Z,0.30
2017-05-19T21:09:21.440Z,0.26
2017-05-19T21:11:49.629Z,0.30
2017-05-19T21:14:17.457Z,0.20
2017-05-19T21:16:47.485Z,0.30
2017-05-19T21:19:15.534Z,0.30
2017-05-19T21:21:42.782Z,0.30
2017-05-19T21:24:14.907Z,0.36
2017-05-19T21:26:44.330Z,0.30
2017-05-19T21:29:12.772Z,0.30
2017-05-19T21:31:40.082Z,0.30
2017-05-19T21:34:07.329Z,0.30
2017-05-19T21:36:34.522Z,0.30
2017-05-19T21:39:01.739Z,0.30
2017-05-19T21:41:28.962Z,0.20
2017-05-19T21:43:56.171Z,0.30
2017-05-19T21:46:23.344Z,0.30
2017-05-19T21:48:50.598Z,0.30
2017-05-19T21:51:17.815Z,0.30
2017-05-19T21:53:45.013Z,0.30
2017-05-19T21:56:12.216Z,0.30
2017-05-19T21:58:39.419Z,0.30
2017-05-19T22:01:06.586Z,0.30
2017-05-19T22:03:33.821Z,0.30
2017-05-19T22:06:10.856Z,0.40
2017-05-19T22:08:38.076Z,0.30
2017-05-19T22:11:05.620Z,0.38
2017-05-19T22:13:32.875Z,0.34
2017-05-19T22:16:01.095Z,0.30
2017-05-19T22:18:28.311Z,0.30
2017-05-19T22:20:55.534Z,0.30
2017-05-19T22:23:22.733Z,0.30
2017-05-19T22:25:56.419Z,0.30
2017-05-19T22:28:23.911Z,0.20
2017-05-19T22:30:51.113Z,0.20
2017-05-19T22:33:18.514Z,0.30
2017-05-19T22:35:45.740Z,0.30
2017-05-19T22:38:13.007Z,0.30
2017-05-19T22:40:40.229Z,0.30
2017-05-19T22:43:07.467Z,0.30
2017-05-19T22:45:34.678Z,0.30
2017-05-19T22:48:01.862Z,0.30
2017-05-19T22:50:29.098Z,0.30
2017-05-19T22:52:56.270Z,0.22
2017-05-19T22:55:23.507Z,0.30
2017-05-19T22:57:50.674Z,0.30
2017-05-19T23:00:17.870Z,0.30
2017-05-19T23:02:45.058Z,0.30
2017-05-19T23:05:12.273Z,0.32
2017-05-19T23:07:39.473Z,0.30
2017-05-19T23:10:06.666Z,0.30
2017-05-19T23:12:35.807Z,0.30
2017-05-19T23:15:02.995Z,0.30
2017-05-19T23:17:30.192Z,0.20
2017-05-19T23:19:57.430Z,0.20
2017-05-19T23:22:25.712Z,0.30
2017-05-19T23:24:52.959Z,0.30
2017-05-19T23:27:20.287Z,0.30
2017-05-19T23:29:47.461Z,0.30
2017-05-19T23:32:14.691Z,0.30
2017-05-19T23:34:41.895Z,0.30
2017-05-19T23:37:09.138Z,0.20
2017-05-19T23:39:36.347Z,0.24
2017-05-19T23:42:03.590Z,0.24
2017-05-19T23:44:30.784Z,0.30
2017-05-19T23:46:57.966Z,0.30
2017-05-19T23:49:25.246Z,0.30
2017-05-19T23:51:52.432Z,0.30
2017-05-19T23:54:19.635Z,0.20
2017-05-19T23:56:46.864Z,0.20
2017-05-19T23:59:14.079Z,0.30
